sensor_id;sensor_type;location;lat;lon;timestamp;pressure;altitude;pressure_sealevel;temperature;humidity
63607;BME280;51327;52.466;-1.938;2022-10-10T00:00:04;99165.97;;;9.02;97.36
63607;BME280;51327;52.466;-1.938;2022-10-10T00:02:35;99176.84;;;9.11;97.96
63607;BME280;51327;52.466;-1.938;2022-10-10T00:05:14;99152.31;;;8.93;98.49
63607;BME280;51327;52.466;-1.938;2022-10-10T00:07:44;99154.56;;;8.99;98.32
63607;BME280;51327;52.466;-1.938;2022-10-10T00:10:32;99268.19;;;9.65;98.77
63607;BME280;51327;52.466;-1.938;2022-10-10T00:13:17;99261.06;;;9.65;99.08
63607;BME280;51327;52.466;-1.938;2022-10-10T00:15:53;99148.91;;;8.91;99.55
63607;BME280;51327;52.466;-1.938;2022-10-10T00:18:42;99152.94;;;8.84;100.00
63607;BME280;51327;52.466;-1.938;2022-10-10T00:21:26;99207.00;;;9.25;100.00
63607;BME280;51327;52.466;-1.938;2022-10-10T00:24:12;99198.25;;;9.23;100.00
63607;BME280;51327;52.466;-1.938;2022-10-10T00:34:42;99208.47;;;9.16;100.00
63607;BME280;51327;52.466;-1.938;2022-10-10T00:48:45;99252.09;;;9.40;100.00
63607;BME280;51327;52.466;-1.938;2022-10-10T00:59:48;99165.06;;;8.75;100.00
63607;BME280;51327;52.466;-1.938;2022-10-10T01:05:12;99162.63;;;8.72;100.00
63607;BME280;51327;52.466;-1.938;2022-10-10T01:07:53;99216.88;;;9.10;100.00
63607;BME280;51327;52.466;-1.938;2022-10-10T01:13:34;99164.84;;;8.78;100.00
63607;BME280;51327;52.466;-1.938;2022-10-10T01:18:52;99275.88;;;9.44;100.00
63607;BME280;51327;52.466;-1.938;2022-10-10T01:24:03;99299.88;;;9.56;100.00
63607;BME280;51327;52.466;-1.938;2022-10-10T01:32:42;99306.81;;;9.59;100.00
63607;BME280;51327;52.466;-1.938;2022-10-10T01:37:53;99302.22;;;9.48;100.00
63607;BME280;51327;52.466;-1.938;2022-10-10T01:40:31;99254.41;;;9.19;100.00
63607;BME280;51327;52.466;-1.938;2022-10-10T01:43:05;99216.88;;;8.97;100.00
63607;BME280;51327;52.466;-1.938;2022-10-10T01:46:23;99216.09;;;8.82;100.00
63607;BME280;51327;52.466;-1.938;2022-10-10T01:48:53;99218.53;;;8.85;100.00
63607;BME280;51327;52.466;-1.938;2022-10-10T02:05:35;99283.63;;;9.21;100.00
63607;BME280;51327;52.466;-1.938;2022-10-10T02:11:08;99328.44;;;9.54;100.00
63607;BME280;51327;52.466;-1.938;2022-10-10T02:13:48;99334.09;;;9.50;100.00
63607;BME280;51327;52.466;-1.938;2022-10-10T02:16:37;99347.44;;;9.62;100.00
63607;BME280;51327;52.466;-1.938;2022-10-10T02:19:06;99292.91;;;9.28;100.00
63607;BME280;51327;52.466;-1.938;2022-10-10T02:21:36;99353.72;;;9.61;100.00
63607;BME280;51327;52.466;-1.938;2022-10-10T02:24:17;99240.41;;;8.90;100.00
63607;BME280;51327;52.466;-1.938;2022-10-10T02:26:55;99373.88;;;9.53;100.00
63607;BME280;51327;52.466;-1.938;2022-10-10T02:29:28;99318.78;;;9.13;100.00
63607;BME280;51327;52.466;-1.938;2022-10-10T02:34:59;99255.78;;;8.72;100.00
63607;BME280;51327;52.466;-1.938;2022-10-10T02:37:28;99406.47;;;9.44;100.00
63607;BME280;51327;52.466;-1.938;2022-10-10T02:40:13;99276.34;;;8.56;100.00
63607;BME280;51327;52.466;-1.938;2022-10-10T02:43:15;99355.22;;;8.86;100.00
63607;BME280;51327;52.466;-1.938;2022-10-10T02:45:44;99413.63;;;9.16;100.00
63607;BME280;51327;52.466;-1.938;2022-10-10T02:48:18;99344.53;;;8.59;100.00
63607;BME280;51327;52.466;-1.938;2022-10-10T02:50:45;99304.81;;;8.27;100.00
63607;BME280;51327;52.466;-1.938;2022-10-10T02:53:14;99387.00;;;8.60;100.00
63607;BME280;51327;52.466;-1.938;2022-10-10T02:55:40;99370.97;;;8.47;100.00
63607;BME280;51327;52.466;-1.938;2022-10-10T02:58:06;99303.69;;;8.02;100.00
63607;BME280;51327;52.466;-1.938;2022-10-10T03:00:43;99318.88;;;8.00;100.00
63607;BME280;51327;52.466;-1.938;2022-10-10T03:03:11;99364.47;;;8.08;100.00
63607;BME280;51327;52.466;-1.938;2022-10-10T03:05:39;99389.94;;;8.27;100.00
63607;BME280;51327;52.466;-1.938;2022-10-10T03:08:11;99326.28;;;7.81;100.00
63607;BME280;51327;52.466;-1.938;2022-10-10T03:11:00;99403.97;;;8.14;100.00
63607;BME280;51327;52.466;-1.938;2022-10-10T03:13:36;99383.47;;;8.02;100.00
63607;BME280;51327;52.466;-1.938;2022-10-10T03:16:02;99387.94;;;8.02;100.00
63607;BME280;51327;52.466;-1.938;2022-10-10T03:18:38;99363.31;;;7.84;100.00
63607;BME280;51327;52.466;-1.938;2022-10-10T03:21:04;99355.03;;;7.74;100.00
63607;BME280;51327;52.466;-1.938;2022-10-10T03:23:31;99355.78;;;7.76;100.00
63607;BME280;51327;52.466;-1.938;2022-10-10T03:25:59;99362.44;;;7.69;100.00
63607;BME280;51327;52.466;-1.938;2022-10-10T03:28:27;99417.28;;;8.00;100.00
63607;BME280;51327;52.466;-1.938;2022-10-10T03:31:03;99377.31;;;7.71;100.00
63607;BME280;51327;52.466;-1.938;2022-10-10T03:33:49;99453.19;;;8.22;100.00
63607;BME280;51327;52.466;-1.938;2022-10-10T03:36:15;99412.31;;;7.94;100.00
63607;BME280;51327;52.466;-1.938;2022-10-10T03:38:41;99434.66;;;8.06;100.00
63607;BME280;51327;52.466;-1.938;2022-10-10T03:41:11;99428.56;;;8.04;100.00
63607;BME280;51327;52.466;-1.938;2022-10-10T03:43:37;99445.97;;;8.09;100.00
63607;BME280;51327;52.466;-1.938;2022-10-10T03:46:02;99492.25;;;8.35;100.00
63607;BME280;51327;52.466;-1.938;2022-10-10T03:48:30;99484.84;;;8.26;100.00
63607;BME280;51327;52.466;-1.938;2022-10-10T03:50:56;99448.13;;;8.03;100.00
63607;BME280;51327;52.466;-1.938;2022-10-10T03:53:26;99370.25;;;7.56;100.00
63607;BME280;51327;52.466;-1.938;2022-10-10T03:55:54;99466.41;;;8.09;100.00
63607;BME280;51327;52.466;-1.938;2022-10-10T03:58:20;99508.22;;;8.35;100.00
63607;BME280;51327;52.466;-1.938;2022-10-10T04:00:57;99486.28;;;8.18;100.00
63607;BME280;51327;52.466;-1.938;2022-10-10T04:03:25;99493.97;;;8.22;100.00
63607;BME280;51327;52.466;-1.938;2022-10-10T04:06:00;99507.84;;;8.27;100.00
63607;BME280;51327;52.466;-1.938;2022-10-10T04:08:28;99519.06;;;8.32;100.00
63607;BME280;51327;52.466;-1.938;2022-10-10T04:10:55;99509.66;;;8.27;100.00
63607;BME280;51327;52.466;-1.938;2022-10-10T04:13:21;99498.81;;;8.15;100.00
63607;BME280;51327;52.466;-1.938;2022-10-10T04:15:50;99413.19;;;7.64;100.00
63607;BME280;51327;52.466;-1.938;2022-10-10T04:18:17;99529.22;;;8.26;100.00
63607;BME280;51327;52.466;-1.938;2022-10-10T04:20:42;99488.09;;;8.01;100.00
63607;BME280;51327;52.466;-1.938;2022-10-10T04:23:12;99551.84;;;8.33;100.00
63607;BME280;51327;52.466;-1.938;2022-10-10T04:25:38;99424.94;;;7.60;100.00
63607;BME280;51327;52.466;-1.938;2022-10-10T04:28:04;99432.91;;;7.60;100.00
63607;BME280;51327;52.466;-1.938;2022-10-10T04:30:33;99514.97;;;7.97;100.00
63607;BME280;51327;52.466;-1.938;2022-10-10T04:32:59;99556.16;;;8.20;100.00
63607;BME280;51327;52.466;-1.938;2022-10-10T04:35:46;99574.25;;;8.29;100.00
63607;BME280;51327;52.466;-1.938;2022-10-10T04:38:14;99589.28;;;8.30;100.00
63607;BME280;51327;52.466;-1.938;2022-10-10T04:40:40;99546.44;;;8.04;100.00
63607;BME280;51327;52.466;-1.938;2022-10-10T04:43:05;99583.53;;;8.22;100.00
63607;BME280;51327;52.466;-1.938;2022-10-10T04:45:33;99464.69;;;7.47;100.00
63607;BME280;51327;52.466;-1.938;2022-10-10T04:47:58;99461.31;;;7.44;100.00
63607;BME280;51327;52.466;-1.938;2022-10-10T04:50:24;99492.22;;;7.61;100.00
63607;BME280;51327;52.466;-1.938;2022-10-10T04:52:55;99582.44;;;8.10;100.00
63607;BME280;51327;52.466;-1.938;2022-10-10T04:55:20;99533.72;;;7.79;100.00
63607;BME280;51327;52.466;-1.938;2022-10-10T04:57:47;99581.94;;;8.03;100.00
63607;BME280;51327;52.466;-1.938;2022-10-10T05:00:15;99551.03;;;7.86;100.00
63607;BME280;51327;52.466;-1.938;2022-10-10T05:02:41;99551.97;;;7.85;100.00
63607;BME280;51327;52.466;-1.938;2022-10-10T05:05:06;99580.41;;;7.99;100.00
63607;BME280;51327;52.466;-1.938;2022-10-10T05:07:35;99627.59;;;8.11;100.00
63607;BME280;51327;52.466;-1.938;2022-10-10T05:10:02;99544.53;;;7.60;100.00
63607;BME280;51327;52.466;-1.938;2022-10-10T05:12:28;99560.72;;;7.56;100.00
63607;BME280;51327;52.466;-1.938;2022-10-10T05:14:56;99591.44;;;7.61;100.00
63607;BME280;51327;52.466;-1.938;2022-10-10T05:17:22;99602.31;;;7.57;100.00
63607;BME280;51327;52.466;-1.938;2022-10-10T05:19:54;99521.31;;;7.00;100.00
63607;BME280;51327;52.466;-1.938;2022-10-10T05:22:21;99579.00;;;7.30;100.00
63607;BME280;51327;52.466;-1.938;2022-10-10T05:24:47;99624.34;;;7.43;100.00
63607;BME280;51327;52.466;-1.938;2022-10-10T05:27:13;99657.25;;;7.56;100.00
63607;BME280;51327;52.466;-1.938;2022-10-10T05:29:43;99642.16;;;7.41;100.00
63607;BME280;51327;52.466;-1.938;2022-10-10T05:32:09;99654.50;;;7.42;100.00
63607;BME280;51327;52.466;-1.938;2022-10-10T05:34:35;99615.69;;;7.06;100.00
63607;BME280;51327;52.466;-1.938;2022-10-10T05:37:02;99645.53;;;7.11;100.00
63607;BME280;51327;52.466;-1.938;2022-10-10T05:39:28;99620.41;;;6.83;100.00
63607;BME280;51327;52.466;-1.938;2022-10-10T05:41:54;99610.44;;;6.71;100.00
63607;BME280;51327;52.466;-1.938;2022-10-10T05:44:22;99683.56;;;7.11;100.00
63607;BME280;51327;52.466;-1.938;2022-10-10T05:46:47;99606.09;;;6.53;100.00
63607;BME280;51327;52.466;-1.938;2022-10-10T05:49:13;99663.34;;;6.74;100.00
63607;BME280;51327;52.466;-1.938;2022-10-10T05:51:41;99663.97;;;6.62;100.00
63607;BME280;51327;52.466;-1.938;2022-10-10T05:54:07;99615.28;;;6.28;100.00
63607;BME280;51327;52.466;-1.938;2022-10-10T05:56:33;99703.56;;;6.66;100.00
63607;BME280;51327;52.466;-1.938;2022-10-10T05:59:00;99575.03;;;5.83;100.00
63607;BME280;51327;52.466;-1.938;2022-10-10T06:01:26;99676.78;;;6.36;100.00
63607;BME280;51327;52.466;-1.938;2022-10-10T06:03:52;99663.53;;;6.17;100.00
63607;BME280;51327;52.466;-1.938;2022-10-10T06:06:23;99644.06;;;5.99;100.00
63607;BME280;51327;52.466;-1.938;2022-10-10T06:08:49;99731.16;;;6.45;100.00
63607;BME280;51327;52.466;-1.938;2022-10-10T06:11:15;99713.25;;;6.31;100.00
63607;BME280;51327;52.466;-1.938;2022-10-10T06:13:45;99698.22;;;6.13;100.00
63607;BME280;51327;52.466;-1.938;2022-10-10T06:16:14;99662.25;;;5.88;100.00
63607;BME280;51327;52.466;-1.938;2022-10-10T06:18:39;99685.25;;;5.88;100.00
63607;BME280;51327;52.466;-1.938;2022-10-10T06:21:07;99741.09;;;6.22;100.00
63607;BME280;51327;52.466;-1.938;2022-10-10T06:23:33;99750.91;;;6.20;100.00
63607;BME280;51327;52.466;-1.938;2022-10-10T06:25:59;99743.72;;;6.03;100.00
63607;BME280;51327;52.466;-1.938;2022-10-10T06:28:27;99739.72;;;5.95;100.00
63607;BME280;51327;52.466;-1.938;2022-10-10T06:30:53;99765.88;;;6.02;100.00
63607;BME280;51327;52.466;-1.938;2022-10-10T06:33:18;99747.06;;;5.88;100.00
63607;BME280;51327;52.466;-1.938;2022-10-10T06:35:47;99682.63;;;5.50;100.00
63607;BME280;51327;52.466;-1.938;2022-10-10T06:38:14;99712.03;;;5.62;100.00
63607;BME280;51327;52.466;-1.938;2022-10-10T06:40:42;99743.34;;;5.73;100.00
63607;BME280;51327;52.466;-1.938;2022-10-10T06:43:12;99750.88;;;5.82;100.00
63607;BME280;51327;52.466;-1.938;2022-10-10T06:45:41;99731.38;;;5.64;100.00
63607;BME280;51327;52.466;-1.938;2022-10-10T06:48:09;99797.81;;;5.99;100.00
63607;BME280;51327;52.466;-1.938;2022-10-10T06:50:37;99781.50;;;5.88;100.00
63607;BME280;51327;52.466;-1.938;2022-10-10T06:53:03;99789.56;;;5.86;100.00
63607;BME280;51327;52.466;-1.938;2022-10-10T06:55:44;99773.28;;;5.75;100.00
63607;BME280;51327;52.466;-1.938;2022-10-10T06:58:16;99792.25;;;5.85;100.00
63607;BME280;51327;52.466;-1.938;2022-10-10T07:00:48;99778.63;;;5.74;100.00
63607;BME280;51327;52.466;-1.938;2022-10-10T07:03:20;99828.56;;;6.03;100.00
63607;BME280;51327;52.466;-1.938;2022-10-10T07:05:50;99816.69;;;5.92;100.00
63607;BME280;51327;52.466;-1.938;2022-10-10T07:08:16;99743.38;;;5.53;100.00
63607;BME280;51327;52.466;-1.938;2022-10-10T07:10:42;99766.75;;;5.63;100.00
63607;BME280;51327;52.466;-1.938;2022-10-10T07:13:10;99768.66;;;5.60;100.00
63607;BME280;51327;52.466;-1.938;2022-10-10T07:15:36;99843.47;;;6.06;100.00
63607;BME280;51327;52.466;-1.938;2022-10-10T07:18:02;99736.38;;;5.31;100.00
63607;BME280;51327;52.466;-1.938;2022-10-10T07:20:30;99758.53;;;5.49;100.00
63607;BME280;51327;52.466;-1.938;2022-10-10T07:22:57;99832.66;;;5.90;100.00
63607;BME280;51327;52.466;-1.938;2022-10-10T07:25:23;99802.63;;;5.71;100.00
63607;BME280;51327;52.466;-1.938;2022-10-10T07:27:50;99806.09;;;5.73;100.00
63607;BME280;51327;52.466;-1.938;2022-10-10T07:30:16;99729.63;;;5.24;100.00
63607;BME280;51327;52.466;-1.938;2022-10-10T07:32:42;99846.91;;;5.88;100.00
63607;BME280;51327;52.466;-1.938;2022-10-10T07:35:10;99818.97;;;5.80;100.00
63607;BME280;51327;52.466;-1.938;2022-10-10T07:37:37;99875.88;;;6.13;100.00
63607;BME280;51327;52.466;-1.938;2022-10-10T07:40:04;99877.66;;;6.12;100.00
63607;BME280;51327;52.466;-1.938;2022-10-10T07:42:32;99861.31;;;6.02;100.00
63607;BME280;51327;52.466;-1.938;2022-10-10T07:44:58;99875.88;;;6.13;100.00
63607;BME280;51327;52.466;-1.938;2022-10-10T07:47:25;99872.22;;;6.15;100.00
63607;BME280;51327;52.466;-1.938;2022-10-10T07:49:52;99858.09;;;6.15;100.00
63607;BME280;51327;52.466;-1.938;2022-10-10T07:52:18;99899.06;;;6.47;100.00
63607;BME280;51327;52.466;-1.938;2022-10-10T07:54:44;99922.50;;;6.56;100.00
63607;BME280;51327;52.466;-1.938;2022-10-10T07:57:12;99844.56;;;6.21;100.00
63607;BME280;51327;52.466;-1.938;2022-10-10T07:59:37;99843.28;;;6.30;100.00
63607;BME280;51327;52.466;-1.938;2022-10-10T08:02:05;99917.13;;;6.77;100.00
63607;BME280;51327;52.466;-1.938;2022-10-10T08:04:33;99939.50;;;6.90;100.00
63607;BME280;51327;52.466;-1.938;2022-10-10T08:07:00;99942.81;;;6.95;100.00
63607;BME280;51327;52.466;-1.938;2022-10-10T08:09:25;99885.88;;;6.64;100.00
63607;BME280;51327;52.466;-1.938;2022-10-10T08:11:53;99937.72;;;6.90;100.00
63607;BME280;51327;52.466;-1.938;2022-10-10T08:14:19;99974.81;;;7.11;100.00
63607;BME280;51327;52.466;-1.938;2022-10-10T08:16:44;99921.28;;;6.82;100.00
63607;BME280;51327;52.466;-1.938;2022-10-10T08:19:12;99969.34;;;7.14;100.00
63607;BME280;51327;52.466;-1.938;2022-10-10T08:21:38;99976.47;;;7.14;100.00
63607;BME280;51327;52.466;-1.938;2022-10-10T08:24:03;99918.84;;;6.78;100.00
63607;BME280;51327;52.466;-1.938;2022-10-10T08:26:31;99954.78;;;7.04;100.00
63607;BME280;51327;52.466;-1.938;2022-10-10T08:29:02;99948.72;;;7.02;100.00
63607;BME280;51327;52.466;-1.938;2022-10-10T08:31:28;99921.00;;;6.88;100.00
63607;BME280;51327;52.466;-1.938;2022-10-10T08:33:55;99918.41;;;6.87;100.00
63607;BME280;51327;52.466;-1.938;2022-10-10T08:36:23;99974.38;;;7.20;100.00
63607;BME280;51327;52.466;-1.938;2022-10-10T08:38:49;99921.38;;;7.00;100.00
63607;BME280;51327;52.466;-1.938;2022-10-10T08:44:14;100014.25;;;7.57;100.00
63607;BME280;51327;52.466;-1.938;2022-10-10T08:46:55;100027.31;;;7.61;100.00
63607;BME280;51327;52.466;-1.938;2022-10-10T08:49:48;100028.94;;;7.64;100.00
63607;BME280;51327;52.466;-1.938;2022-10-10T08:52:36;100002.44;;;7.62;100.00
63607;BME280;51327;52.466;-1.938;2022-10-10T08:55:16;99978.97;;;7.53;100.00
63607;BME280;51327;52.466;-1.938;2022-10-10T09:00:17;99997.91;;;7.64;100.00
63607;BME280;51327;52.466;-1.938;2022-10-10T09:02:53;100023.72;;;7.80;100.00
63607;BME280;51327;52.466;-1.938;2022-10-10T09:08:14;100031.53;;;7.83;100.00
63607;BME280;51327;52.466;-1.938;2022-10-10T09:10:50;100044.16;;;7.97;100.00
63607;BME280;51327;52.466;-1.938;2022-10-10T09:13:30;100016.84;;;7.76;100.00
63607;BME280;51327;52.466;-1.938;2022-10-10T09:16:05;100072.56;;;8.13;100.00
63607;BME280;51327;52.466;-1.938;2022-10-10T09:21:39;100081.91;;;8.22;100.00
63607;BME280;51327;52.466;-1.938;2022-10-10T09:24:21;100034.31;;;7.99;100.00
63607;BME280;51327;52.466;-1.938;2022-10-10T09:27:05;100034.22;;;8.00;100.00
63607;BME280;51327;52.466;-1.938;2022-10-10T09:29:52;100041.75;;;8.09;100.00
63607;BME280;51327;52.466;-1.938;2022-10-10T09:32:38;100091.41;;;8.45;100.00
63607;BME280;51327;52.466;-1.938;2022-10-10T09:35:25;100092.81;;;8.52;100.00
63607;BME280;51327;52.466;-1.938;2022-10-10T09:40:46;100093.50;;;8.56;100.00
63607;BME280;51327;52.466;-1.938;2022-10-10T09:43:19;100111.34;;;8.71;100.00
63607;BME280;51327;52.466;-1.938;2022-10-10T09:45:52;100083.31;;;8.64;100.00
63607;BME280;51327;52.466;-1.938;2022-10-10T09:48:22;100060.78;;;8.54;100.00
63607;BME280;51327;52.466;-1.938;2022-10-10T09:50:52;100064.06;;;8.59;100.00
63607;BME280;51327;52.466;-1.938;2022-10-10T09:53:19;100122.09;;;9.03;100.00
63607;BME280;51327;52.466;-1.938;2022-10-10T09:55:48;100089.84;;;8.92;100.00
63607;BME280;51327;52.466;-1.938;2022-10-10T09:58:36;100094.00;;;8.97;98.89
63607;BME280;51327;52.466;-1.938;2022-10-10T10:01:19;100119.66;;;9.16;98.04
63607;BME280;51327;52.466;-1.938;2022-10-10T10:04:11;100124.31;;;9.28;97.78
63607;BME280;51327;52.466;-1.938;2022-10-10T10:06:48;100066.50;;;8.97;97.82
63607;BME280;51327;52.466;-1.938;2022-10-10T10:09:18;100085.59;;;9.21;97.59
63607;BME280;51327;52.466;-1.938;2022-10-10T10:11:48;100113.78;;;9.43;97.23
63607;BME280;51327;52.466;-1.938;2022-10-10T10:14:34;100114.44;;;9.46;96.33
63607;BME280;51327;52.466;-1.938;2022-10-10T10:17:15;100119.38;;;9.54;94.81
63607;BME280;51327;52.466;-1.938;2022-10-10T10:19:45;100144.91;;;9.74;93.95
63607;BME280;51327;52.466;-1.938;2022-10-10T10:22:32;100154.63;;;9.75;92.85
63607;BME280;51327;52.466;-1.938;2022-10-10T10:25:32;100168.66;;;9.78;92.38
63607;BME280;51327;52.466;-1.938;2022-10-10T10:30:38;100152.13;;;9.88;91.24
63607;BME280;51327;52.466;-1.938;2022-10-10T10:35:47;100110.84;;;9.63;90.89
63607;BME280;51327;52.466;-1.938;2022-10-10T10:55:40;100163.84;;;10.01;86.83
63607;BME280;51327;52.466;-1.938;2022-10-10T11:01:02;100212.97;;;10.44;85.54
63607;BME280;51327;52.466;-1.938;2022-10-10T11:09:11;100169.84;;;10.20;85.60
63607;BME280;51327;52.466;-1.938;2022-10-10T11:11:47;100156.31;;;10.23;85.06
63607;BME280;51327;52.466;-1.938;2022-10-10T11:16:58;100225.81;;;10.70;83.94
63607;BME280;51327;52.466;-1.938;2022-10-10T11:19:37;100235.06;;;10.78;82.29
63607;BME280;51327;52.466;-1.938;2022-10-10T11:22:13;100207.22;;;10.52;82.14
63607;BME280;51327;52.466;-1.938;2022-10-10T11:24:57;100244.31;;;10.73;82.35
63607;BME280;51327;52.466;-1.938;2022-10-10T11:27:29;100181.84;;;10.29;82.20
63607;BME280;51327;52.466;-1.938;2022-10-10T11:30:13;100187.00;;;10.32;82.66
63607;BME280;51327;52.466;-1.938;2022-10-10T11:32:50;100218.44;;;10.43;82.17
63607;BME280;51327;52.466;-1.938;2022-10-10T11:35:24;100248.03;;;10.70;81.86
63607;BME280;51327;52.466;-1.938;2022-10-10T11:38:04;100200.50;;;10.45;81.93
63607;BME280;51327;52.466;-1.938;2022-10-10T11:40:45;100231.38;;;10.65;81.69
63607;BME280;51327;52.466;-1.938;2022-10-10T11:43:19;100244.38;;;10.71;81.17
63607;BME280;51327;52.466;-1.938;2022-10-10T11:45:55;100242.72;;;10.84;80.64
63607;BME280;51327;52.466;-1.938;2022-10-10T11:48:36;100200.78;;;10.71;80.23
63607;BME280;51327;52.466;-1.938;2022-10-10T11:51:18;100245.06;;;11.05;76.56
63607;BME280;51327;52.466;-1.938;2022-10-10T11:53:50;100220.13;;;10.90;76.27
63607;BME280;51327;52.466;-1.938;2022-10-10T11:56:33;100254.44;;;11.12;77.08
63607;BME280;51327;52.466;-1.938;2022-10-10T11:59:23;100270.59;;;11.11;77.43
63607;BME280;51327;52.466;-1.938;2022-10-10T12:01:55;100263.78;;;11.05;77.52
63607;BME280;51327;52.466;-1.938;2022-10-10T12:04:34;100253.16;;;11.03;76.09
63607;BME280;51327;52.466;-1.938;2022-10-10T12:07:23;100272.31;;;11.26;75.55
63607;BME280;51327;52.466;-1.938;2022-10-10T12:10:21;100257.91;;;11.28;75.91
63607;BME280;51327;52.466;-1.938;2022-10-10T12:12:52;100250.78;;;11.43;76.17
63607;BME280;51327;52.466;-1.938;2022-10-10T12:15:29;100259.50;;;11.61;75.75
63607;BME280;51327;52.466;-1.938;2022-10-10T12:17:59;100233.41;;;11.50;74.89
63607;BME280;51327;52.466;-1.938;2022-10-10T12:25:41;100234.38;;;11.49;72.75
63607;BME280;51327;52.466;-1.938;2022-10-10T12:33:57;100268.66;;;11.71;72.79
63607;BME280;51327;52.466;-1.938;2022-10-10T12:44:21;100264.25;;;11.42;73.76
63607;BME280;51327;52.466;-1.938;2022-10-10T12:50:00;100246.28;;;11.29;73.22
63607;BME280;51327;52.466;-1.938;2022-10-10T12:52:44;100288.41;;;11.40;72.30
63607;BME280;51327;52.466;-1.938;2022-10-10T12:55:23;100286.66;;;11.25;73.03
63607;BME280;51327;52.466;-1.938;2022-10-10T12:57:53;100311.66;;;11.24;73.30
63607;BME280;51327;52.466;-1.938;2022-10-10T13:00:24;100314.88;;;11.15;73.87
63607;BME280;51327;52.466;-1.938;2022-10-10T13:03:02;100234.06;;;10.65;72.68
63607;BME280;51327;52.466;-1.938;2022-10-10T13:05:34;100267.03;;;10.80;71.78
63607;BME280;51327;52.466;-1.938;2022-10-10T13:08:12;100281.63;;;11.04;72.29
63607;BME280;51327;52.466;-1.938;2022-10-10T13:10:41;100235.59;;;10.69;68.62
63607;BME280;51327;52.466;-1.938;2022-10-10T13:15:50;100292.44;;;10.87;68.16
63607;BME280;51327;52.466;-1.938;2022-10-10T13:18:41;100305.00;;;11.01;67.84
63607;BME280;51327;52.466;-1.938;2022-10-10T13:21:13;100252.00;;;10.63;67.91
63607;BME280;51327;52.466;-1.938;2022-10-10T13:23:45;100309.84;;;10.94;68.12
63607;BME280;51327;52.466;-1.938;2022-10-10T13:26:23;100327.06;;;11.04;68.36
63607;BME280;51327;52.466;-1.938;2022-10-10T13:28:55;100315.38;;;10.91;68.67
63607;BME280;51327;52.466;-1.938;2022-10-10T13:31:28;100263.09;;;10.55;68.80
63607;BME280;51327;52.466;-1.938;2022-10-10T13:33:58;100322.88;;;10.84;69.70
63607;BME280;51327;52.466;-1.938;2022-10-10T13:36:27;100330.28;;;10.95;70.23
63607;BME280;51327;52.466;-1.938;2022-10-10T13:38:53;100319.09;;;10.89;70.34
63607;BME280;51327;52.466;-1.938;2022-10-10T13:41:22;100332.59;;;11.01;70.05
63607;BME280;51327;52.466;-1.938;2022-10-10T13:43:49;100306.00;;;10.84;70.43
63607;BME280;51327;52.466;-1.938;2022-10-10T13:46:30;100332.69;;;11.00;69.59
63607;BME280;51327;52.466;-1.938;2022-10-10T13:48:59;100335.00;;;11.06;69.91
63607;BME280;51327;52.466;-1.938;2022-10-10T13:51:41;100316.59;;;10.85;68.70
63607;BME280;51327;52.466;-1.938;2022-10-10T13:57:05;100361.38;;;10.96;67.11
63607;BME280;51327;52.466;-1.938;2022-10-10T13:59:38;100345.22;;;10.83;65.99
63607;BME280;51327;52.466;-1.938;2022-10-10T14:02:11;100318.41;;;10.69;66.60
63607;BME280;51327;52.466;-1.938;2022-10-10T14:04:46;100362.63;;;10.91;66.45
63607;BME280;51327;52.466;-1.938;2022-10-10T14:07:24;100329.53;;;10.61;65.98
63607;BME280;51327;52.466;-1.938;2022-10-10T14:10:04;100378.22;;;10.82;66.13
63607;BME280;51327;52.466;-1.938;2022-10-10T14:12:37;100320.50;;;10.48;65.93
63607;BME280;51327;52.466;-1.938;2022-10-10T14:15:42;100398.22;;;10.91;65.59
63607;BME280;51327;52.466;-1.938;2022-10-10T14:18:22;100377.88;;;10.73;64.79
63607;BME280;51327;52.466;-1.938;2022-10-10T14:20:48;100349.34;;;10.57;63.37
63607;BME280;51327;52.466;-1.938;2022-10-10T14:23:16;100392.53;;;10.81;63.52
63607;BME280;51327;52.466;-1.938;2022-10-10T14:25:45;100404.78;;;10.85;62.34
63607;BME280;51327;52.466;-1.938;2022-10-10T14:28:26;100400.53;;;10.81;63.30
63607;BME280;51327;52.466;-1.938;2022-10-10T14:30:55;100367.44;;;10.52;62.48
63607;BME280;51327;52.466;-1.938;2022-10-10T14:33:20;100338.38;;;10.30;63.26
63607;BME280;51327;52.466;-1.938;2022-10-10T14:35:48;100398.91;;;10.63;62.89
63607;BME280;51327;52.466;-1.938;2022-10-10T14:38:16;100403.09;;;10.67;62.14
63607;BME280;51327;52.466;-1.938;2022-10-10T14:40:45;100417.25;;;10.85;63.27
63607;BME280;51327;52.466;-1.938;2022-10-10T14:43:11;100425.97;;;10.89;63.35
63607;BME280;51327;52.466;-1.938;2022-10-10T14:45:39;100376.22;;;10.54;63.51
63607;BME280;51327;52.466;-1.938;2022-10-10T14:48:09;100415.28;;;10.73;63.49
63607;BME280;51327;52.466;-1.938;2022-10-10T14:50:40;100451.91;;;10.86;63.56
63607;BME280;51327;52.466;-1.938;2022-10-10T14:53:10;100411.03;;;10.69;63.39
63607;BME280;51327;52.466;-1.938;2022-10-10T14:55:38;100444.94;;;10.84;63.70
63607;BME280;51327;52.466;-1.938;2022-10-10T14:58:16;100435.00;;;10.70;64.21
63607;BME280;51327;52.466;-1.938;2022-10-10T15:00:44;100409.66;;;10.61;63.77
63607;BME280;51327;52.466;-1.938;2022-10-10T15:03:10;100445.25;;;10.78;63.89
63607;BME280;51327;52.466;-1.938;2022-10-10T15:05:36;100400.53;;;10.50;64.08
63607;BME280;51327;52.466;-1.938;2022-10-10T15:08:05;100376.22;;;10.38;64.26
63607;BME280;51327;52.466;-1.938;2022-10-10T15:10:31;100416.56;;;10.65;64.05
63607;BME280;51327;52.466;-1.938;2022-10-10T15:12:56;100439.50;;;10.70;64.11
63607;BME280;51327;52.466;-1.938;2022-10-10T15:15:24;100437.75;;;10.69;64.42
63607;BME280;51327;52.466;-1.938;2022-10-10T15:17:50;100427.94;;;10.69;64.25
63607;BME280;51327;52.466;-1.938;2022-10-10T15:20:15;100429.56;;;10.72;64.78
63607;BME280;51327;52.466;-1.938;2022-10-10T15:22:43;100415.00;;;10.61;64.13
63607;BME280;51327;52.466;-1.938;2022-10-10T15:25:10;100373.16;;;10.29;63.47
63607;BME280;51327;52.466;-1.938;2022-10-10T15:27:36;100419.50;;;10.61;63.26
63607;BME280;51327;52.466;-1.938;2022-10-10T15:30:05;100412.59;;;10.57;62.81
63607;BME280;51327;52.466;-1.938;2022-10-10T15:32:31;100397.47;;;10.40;62.85